Latest Weather Observations for Perisher Valley

IDN60901

Issued at 8:31 pm EST Sunday 25 June 2017 (issued every 10 minutes, with the page automatically refreshed every 10 minutes)

About weather observations | Map of Canberra area stations | Latest observations for Canberra area | Other Formats
Station Details ID: 071075 Name: PERISHER VALLEY AWS Lat: -36.41 Lon: 148.41 Height: 1738.0 m
Data from the previous 72 hours. | See also: Recent months at Perisher Valley
Date/Time
EST
Temp
°C
App
Temp
°C
Dew
Point
°C
Rel
Hum
%
Delta-T
°C
Wind Press
QNH
hPa
Press
MSL
hPa
Rain since
9am
mm
Dir  Spd
km/h
Gust
km/h
Spd
kts
Gust
kts
25/08:30pm -1.9 -9.3 -3.8 87 0.6 W 26 48 14 26 - - 0.4
25/08:00pm -1.7 -10.3 -3.9 85 0.7 W 32 63 17 34 - - 0.4
25/07:53pm -1.7 -8.7 -3.7 86 0.6 W 24 63 13 34 - - 0.4
25/07:30pm -1.9 -8.0 -3.6 88 0.5 W 19 35 10 19 - - 0.4
25/07:00pm -1.9 -10.5 -4.1 85 0.7 WNW 32 65 17 35 - - 0.4
25/06:44pm -1.9 -8.9 -3.2 91 0.4 WNW 24 52 13 28 - - 0.4
25/06:30pm -1.8 -8.0 -3.1 91 0.4 WNW 20 44 11 24 - - 0.4
25/06:00pm -1.8 -8.0 -2.8 93 0.3 WNW 20 46 11 25 - - 0.4
25/05:30pm -2.1 -9.1 -3.1 93 0.3 WNW 24 50 13 27 - - 0.4
25/05:00pm -1.8 -8.3 -2.8 93 0.3 W 22 41 12 22 - - 0.0
25/04:43pm -1.8 -9.4 -2.4 96 0.1 WNW 28 46 15 25 - - 0.0
25/04:30pm -1.6 -7.5 -2.0 97 0.1 WNW 19 35 10 19 - - 0.0
25/04:00pm -1.8 -7.7 -2.4 96 0.1 W 19 39 10 21 - - 0.0
25/03:30pm -1.4 -7.3 -2.2 94 0.2 W 19 43 10 23 - - 0.0
25/03:00pm -1.5 -8.0 -2.2 95 0.2 W 22 50 12 27 - - 0.0
25/02:32pm -1.5 -9.1 -2.5 93 0.3 W 28 50 15 27 - - 0.0
25/02:30pm -1.6 -8.9 -2.7 92 0.3 W 26 48 14 26 - - 0.0
25/02:00pm -0.7 -6.7 -3.2 83 0.9 W 19 57 10 31 - - 0.0
25/01:30pm -0.8 -8.6 -4.0 79 1.1 WSW 28 56 15 30 - - 0.0
25/01:00pm -1.0 -9.3 -4.5 77 1.2 W 30 50 16 27 - - 0.0
25/12:44pm -1.1 -9.7 -4.6 77 1.2 W 32 69 17 37 - - 0.0
25/12:30pm -1.2 -9.4 -4.4 79 1.1 W 30 48 16 26 - - 0.0
25/12:00pm -1.2 -10.0 -4.5 78 1.1 W 33 61 18 33 - - 0.0
25/11:30am -1.4 -10.0 -4.6 79 1.1 W 32 57 17 31 - - 0.0
25/11:00am -1.6 -10.5 -4.9 78 1.1 W 33 59 18 32 - - 0.0
25/10:30am -1.5 -9.4 -4.7 79 1.1 W 28 57 15 31 - - 0.0
25/10:00am -1.6 -10.8 -4.6 80 1.0 W 35 61 19 33 - - 0.0
25/09:30am -2.2 -11.1 -5.3 79 1.0 W 33 61 18 33 - - 0.0
25/09:00am -3.0 -11.0 -5.5 83 0.7 W 28 57 15 31 - - 0.0
25/08:30am -3.8 -12.2 -5.9 85 0.5 WSW 30 50 16 27 - - 0.0
25/08:00am -5.0 -16.0 -6.8 87 0.4 W 43 61 23 33 - - 0.0
25/07:35am -5.2 -16.2 -6.9 88 0.3 W 43 65 23 35 - - 0.0
25/07:30am -5.1 -16.1 -6.8 88 0.3 W 43 61 23 33 - - 0.0
25/07:00am -5.1 -14.9 -6.8 88 0.3 W 37 57 20 31 - - 0.0
25/06:39am -5.2 -15.0 -7.0 87 0.4 W 37 56 20 30 - - 0.0
25/06:30am -5.2 -15.0 -6.9 88 0.3 W 37 52 20 28 - - 0.0
25/06:01am -5.2 -15.4 -6.6 90 0.2 WNW 39 59 21 32 - - 0.0
25/06:00am -5.1 -14.9 -6.6 89 0.3 WNW 37 56 20 30 - - 0.0
25/05:39am -5.2 -14.6 -6.9 88 0.3 W 35 56 19 30 - - 0.0
25/05:30am -5.1 -14.2 -7.1 86 0.4 WNW 33 50 18 27 - - 0.0
25/05:09am -4.8 -13.9 -7.4 82 0.6 WNW 33 52 18 28 - - 0.0
25/05:00am -4.7 -13.8 -7.3 82 0.6 WNW 33 50 18 27 - - 0.0
25/04:30am -4.4 -13.3 -6.7 84 0.6 WNW 32 50 17 27 - - 0.0
25/04:00am -4.6 -13.5 -6.7 85 0.5 W 32 50 17 27 - - 0.0
25/03:56am -4.8 -13.6 -6.5 88 0.4 W 32 50 17 27 - - 0.0
25/03:30am -4.7 -14.1 -6.7 86 0.4 W 35 54 19 29 - - 0.0
25/03:00am -4.6 -14.8 -6.4 87 0.4 WNW 39 56 21 30 - - 0.0
25/02:55am -4.6 -14.0 -6.4 87 0.4 WNW 35 56 19 30 - - 0.0
25/02:30am -4.1 -13.5 -6.5 83 0.6 WNW 35 50 19 27 - - 0.0
25/02:00am -4.1 -13.1 -6.2 85 0.5 W 33 52 18 28 - - 0.0
25/01:53am -4.2 -13.2 -6.0 87 0.4 W 33 52 18 28 - - 0.0
25/01:30am -4.0 -13.3 -5.7 88 0.4 W 35 50 19 27 - - 0.0
25/01:00am -4.0 -13.7 -5.7 88 0.4 WNW 37 52 20 28 - - 0.0
25/12:30am -3.9 -13.5 -5.1 91 0.2 W 37 52 20 28 - - 0.0
25/12:00am -3.6 -12.8 -4.9 91 0.3 W 35 59 19 32 - - 0.0
 
Date/Time
EST
Temp
°C
App
Temp
°C
Dew
Point
°C
Rel
Hum
%
Delta-T
°C
Wind Press
QNH
hPa
Press
MSL
hPa
Rain since
9am
mm
Dir  Spd
km/h
Gust
km/h
Spd
kts
Gust
kts
24/11:30pm -3.5 -11.4 -4.8 91 0.3 W 28 48 15 26 - - 0.0
24/11:07pm -3.4 -11.3 -4.4 93 0.2 W 28 46 15 25 - - 0.0
24/11:00pm -3.3 -10.0 -4.3 93 0.2 W 22 43 12 23 - - 0.0
24/10:39pm -3.2 -11.1 -4.3 92 0.2 W 28 46 15 25 - - 0.0
24/10:30pm -3.1 -10.9 -4.2 92 0.2 W 28 46 15 25 - - 0.0
24/10:09pm -2.9 -10.7 -4.2 91 0.3 W 28 50 15 27 - - 0.0
24/10:00pm -2.9 -10.0 -4.2 91 0.3 W 24 43 13 23 - - 0.0
24/09:33pm -2.7 -11.0 -4.9 85 0.6 W 30 48 16 26 - - 0.0
24/09:30pm -2.7 -11.3 -4.6 87 0.5 W 32 48 17 26 - - 0.0
24/09:15pm -2.5 -10.7 -4.2 88 0.5 W 30 50 16 27 - - 0.0
24/09:00pm -2.4 -9.8 -4.0 89 0.5 W 26 43 14 23 - - 0.0
24/08:30pm -2.3 -6.9 -4.3 86 0.6 W 11 39 6 21 - - 0.0
24/08:00pm -1.9 -7.2 -3.3 90 0.4 WSW 15 32 8 17 - - 0.0
24/07:30pm -2.1 -7.4 -4.0 87 0.6 W 15 33 8 18 - - 0.0
24/07:00pm -2.1 -7.8 -3.7 89 0.5 WSW 17 32 9 17 - - 0.0
24/06:30pm -2.3 -7.7 -4.6 84 0.7 W 15 32 8 17 - - 0.0
24/06:00pm -2.2 -8.9 -4.4 85 0.7 WSW 22 43 12 23 - - 0.0
24/05:30pm -2.1 -7.1 -4.1 86 0.6 WSW 13 32 7 17 - - 0.0
24/05:00pm -1.8 -6.4 -4.1 84 0.7 WSW 11 46 6 25 - - 0.0
24/04:30pm -1.6 -6.1 -3.6 86 0.7 WSW 11 35 6 19 - - 0.0
24/04:00pm -1.3 -7.5 -3.5 85 0.7 W 20 35 11 19 - - 0.0
24/03:30pm -0.9 -6.6 -3.6 82 1.0 WSW 17 39 9 21 - - 0.0
24/03:00pm -0.2 -5.1 -3.4 79 1.2 WSW 13 37 7 20 - - 0.0
24/02:30pm 0.0 -7.0 -3.4 78 1.3 W 24 46 13 25 - - 0.0
24/02:00pm -0.4 -8.6 -3.8 78 1.2 W 30 52 16 28 - - 0.0
24/01:30pm 0.0 -8.4 -2.7 82 1.0 WNW 32 52 17 28 - - 0.0
24/01:00pm 0.3 -8.4 -3.4 76 1.4 W 33 61 18 33 - - 0.0
24/12:33pm 0.3 -7.4 -3.1 78 1.3 W 28 52 15 28 - - 0.0
24/12:30pm -0.1 -7.4 -2.8 82 1.0 W 26 48 14 26 - - 0.0
24/12:13pm 0.1 -8.0 -2.8 81 1.1 W 30 48 16 26 - - 0.0
24/12:00pm 0.1 -8.3 -2.8 81 1.1 W 32 46 17 25 - - 0.0
24/11:44am 0.1 -7.6 -2.6 82 1.0 W 28 48 15 26 - - 0.0
24/11:30am 0.3 -5.6 -2.4 82 1.1 W 19 41 10 22 - - 0.0
24/11:00am 0.7 -5.0 -4.1 70 1.8 W 17 37 9 20 - - 0.0
24/10:30am 0.6 -5.5 -3.9 72 1.7 W 19 41 10 22 - - 0.0
24/10:00am 0.6 -5.5 -4.2 70 1.8 W 19 39 10 21 - - 0.0
24/09:30am 0.3 -6.0 -4.0 73 1.6 W 20 39 11 21 - - 0.0
24/09:00am -0.3 -7.0 -4.0 76 1.3 WSW 22 37 12 20 - - 0.2
24/08:30am -0.8 -6.9 -3.5 82 1.0 WSW 19 39 10 21 - - 0.2
24/08:00am -0.9 -6.5 -2.9 86 0.7 WSW 17 43 9 23 - - 0.2
24/07:30am -0.7 -6.3 -3.2 83 0.9 W 17 35 9 19 - - 0.2
24/07:00am -0.8 -6.8 -2.7 87 0.7 WSW 19 41 10 22 - - 0.2
24/06:30am -0.9 -6.5 -3.1 85 0.8 WSW 17 43 9 23 - - 0.2
24/06:00am -0.8 -6.8 -2.8 86 0.7 WSW 19 41 10 22 - - 0.2
24/05:30am -0.8 -6.7 -2.4 89 0.6 W 19 39 10 21 - - 0.2
24/05:15am -0.7 -8.3 -2.1 90 0.5 W 28 61 15 33 - - 0.2
24/05:00am -0.6 -6.9 -1.3 95 0.2 W 22 54 12 29 - - 0.2
24/04:30am -0.6 -7.7 -1.0 97 0.1 W 26 54 14 29 - - 0.2
24/04:00am -0.2 -8.0 -0.8 96 0.2 W 30 59 16 32 - - 0.2
24/03:52am -0.2 -7.6 -0.9 95 0.3 W 28 57 15 31 - - 0.2
24/03:30am -0.1 -6.4 -1.1 93 0.4 W 22 52 12 28 - - 0.2
24/03:13am -0.2 -7.7 -1.2 93 0.4 W 28 52 15 28 - - 0.2
24/03:00am -0.3 -6.3 -1.4 92 0.4 W 20 41 11 22 - - 0.2
24/02:30am -0.5 -7.3 -1.5 93 0.4 WSW 24 52 13 28 - - 0.2
24/02:07am -0.5 -7.9 -0.8 98 0.1 W 28 56 15 30 - - 0.2
24/02:00am -0.4 -7.4 -0.7 98 0.1 W 26 50 14 27 - - 0.2
24/01:30am -0.4 -6.7 -0.7 98 0.1 WSW 22 41 12 22 - - 0.2
24/01:21am -0.4 -7.8 -0.7 98 0.1 WSW 28 57 15 31 - - 0.2
24/01:00am -0.4 -6.3 -0.7 98 0.1 W 20 44 11 24 - - 0.2
24/12:30am -0.4 -6.7 -0.7 98 0.1 W 22 54 12 29 - - 0.2
24/12:00am -0.5 -6.4 -0.8 98 0.1 W 20 44 11 24 - - 0.0
 
Date/Time
EST
Temp
°C
App
Temp
°C
Dew
Point
°C
Rel
Hum
%
Delta-T
°C
Wind Press
QNH
hPa
Press
MSL
hPa
Rain since
9am
mm
Dir  Spd
km/h
Gust
km/h
Spd
kts
Gust
kts
23/11:30pm -0.6 -6.5 -0.9 98 0.1 W 20 44 11 24 - - 0.0
23/11:00pm -0.8 -6.6 -1.2 97 0.1 W 19 41 10 22 - - 0.0
23/10:30pm -1.0 -7.4 -1.6 96 0.2 W 22 46 12 25 - - 0.0
23/10:00pm -1.1 -7.9 -2.2 92 0.4 W 24 54 13 29 - - 0.0
23/09:31pm -1.1 -8.8 -2.8 88 0.6 W 28 56 15 30 - - 0.0
23/09:30pm -1.1 -8.4 -2.8 88 0.6 W 26 56 14 30 - - 0.0
23/09:00pm -1.1 -9.8 -3.3 85 0.8 W 33 72 18 39 - - 0.0
23/08:52pm -0.8 -9.3 -3.2 84 0.9 W 32 72 17 39 - - 0.0
23/08:38pm -1.1 -8.8 -3.1 86 0.7 W 28 50 15 27 - - 0.0
23/08:30pm -1.1 -8.1 -3.1 86 0.7 W 24 56 13 30 - - 0.0
23/08:00pm -1.6 -9.0 -3.6 86 0.7 W 26 46 14 25 - - 0.0
23/07:30pm -1.9 -8.2 -4.1 85 0.7 W 20 44 11 24 - - 0.0
23/07:00pm -1.9 -8.1 -4.6 82 0.9 W 19 43 10 23 - - 0.0
23/06:30pm -1.7 -11.6 -4.0 84 0.7 WNW 39 69 21 37 - - 0.0
23/06:00pm -1.9 -12.8 -4.1 85 0.7 W 44 76 24 41 - - 0.0
23/05:30pm -1.9 -12.6 -4.7 81 0.9 W 43 63 23 34 - - 0.0
23/05:00pm -1.3 -10.8 -7.8 61 2.1 WNW 35 63 19 34 - - 0.0
23/04:30pm -0.7 -9.6 -7.7 59 2.3 WNW 32 57 17 31 - - 0.0
23/04:00pm -0.4 -9.4 -8.5 54 2.6 WNW 32 61 17 33 - - 0.0
23/03:30pm -0.1 -9.4 -9.8 48 3.1 WNW 33 57 18 31 - - 0.0
23/03:00pm 0.6 -9.5 -10.2 44 3.4 WNW 37 69 20 37 - - 0.0
23/02:30pm 0.9 -9.2 -10.2 43 3.6 WNW 37 61 20 33 - - 0.0
23/02:00pm 0.8 -9.4 -11.9 38 3.9 WNW 37 65 20 35 - - 0.0
23/01:30pm 0.8 -8.0 -10.9 41 3.7 WNW 30 56 16 30 - - 0.0
23/01:07pm 0.9 -7.6 -11.8 38 3.9 WNW 28 50 15 27 - - 0.0
23/01:00pm 1.1 -6.9 -10.7 41 3.8 WNW 26 50 14 27 - - 0.0
23/12:30pm 1.2 -7.6 -10.6 41 3.8 WNW 30 59 16 32 - - 0.0
23/12:23pm 0.9 -7.1 -9.9 44 3.5 WNW 26 52 14 28 - - 0.0
23/12:00pm 1.7 -3.9 -10.4 40 3.9 W 13 37 7 20 - - 0.0
23/11:30am 1.8 -4.9 -11.0 38 4.1 W 19 43 10 23 - - 0.0
23/11:00am 2.6 -3.8 -11.3 35 4.5 W 17 39 9 21 - - 0.0
23/10:30am 2.4 -3.3 -12.2 33 4.6 WNW 13 32 7 17 - - 0.0
23/10:00am 1.8 -4.6 -12.4 34 4.4 WNW 17 37 9 20 - - 0.0
23/09:30am 2.0 -3.7 -12.9 32 4.6 WNW 13 35 7 19 - - 0.0
23/09:00am 2.4 -2.3 -14.7 27 5.0 SW 7 28 4 15 - - 0.0
23/08:30am 2.1 -2.3 -12.5 33 4.5 WNW 6 17 3 9 - - 0.0
23/08:00am 1.2 -4.2 -13.3 33 4.3 W 11 33 6 18 - - 0.0
23/07:30am 1.1 -4.6 -13.3 33 4.3 W 13 32 7 17 - - 0.0
23/07:00am 1.2 -4.6 -13.6 32 4.4 W 13 30 7 16 - - 0.0
23/06:30am 0.6 -4.0 -13.8 33 4.2 NW 7 22 4 12 - - 0.0
23/06:00am -1.0 -4.9 -11.4 45 3.1 N 4 19 2 10 - - 0.0
23/05:30am -2.3 -6.2 -11.3 50 2.6 N 4 11 2 6 - - 0.0
23/05:00am -2.9 -6.8 -11.6 51 2.4 NNW 4 11 2 6 - - 0.0
23/04:30am -1.3 -4.9 -12.0 44 3.1 WNW 2 6 1 3 - - 0.0
23/04:00am -2.7 -6.3 -11.7 50 2.5 ENE 2 6 1 3 - - 0.0
23/03:30am -0.1 -6.1 -10.9 44 3.3 W 15 24 8 13 - - 0.0
23/03:00am 0.4 -5.9 -9.8 46 3.3 W 17 24 9 13 - - 0.0
23/02:30am 1.4 -4.7 -12.4 35 4.2 W 15 28 8 15 - - 0.0
23/02:00am 2.4 -4.7 -13.8 29 4.9 WNW 20 32 11 17 - - 0.0
23/01:30am 1.8 -5.7 -14.3 29 4.7 W 22 33 12 18 - - 0.0
23/01:00am 1.4 -6.5 -14.7 29 4.6 W 24 33 13 18 - - 0.0
23/12:30am 1.6 -4.7 -16.3 25 5.0 W 15 30 8 16 - - 0.0
23/12:00am 2.1 -4.3 -17.9 21 5.4 W 15 22 8 12 - - 0.0
 
Date/Time
EST
Temp
°C
App
Temp
°C
Dew
Point
°C
Rel
Hum
%
Delta-T
°C
Wind Press
QNH
hPa
Press
MSL
hPa
Rain since
9am
mm
Dir  Spd
km/h
Gust
km/h
Spd
kts
Gust
kts
22/11:30pm 1.3 -5.6 -14.3 30 4.5 W 19 26 10 14 - - 0.0
22/11:00pm 0.7 -5.8 -14.1 32 4.3 W 17 24 9 13 - - 0.0
22/10:30pm 1.2 -5.7 -14.4 30 4.5 W 19 24 10 13 - - 0.0
22/10:00pm 1.1 -5.8 -14.1 31 4.4 W 19 26 10 14 - - 0.0
22/09:30pm 1.7 -3.8 -15.3 27 4.9 W 11 24 6 13 - - 0.0
22/09:00pm 0.6 -4.5 -14.5 31 4.3 W 9 19 5 10 - - 0.0

Latest Capital City Observations: Canberra | Sydney | Melbourne | Brisbane | Adelaide | Perth | Hobart | Darwin

Other Formats:

Comma delimited format used in spreadsheet applications
http://www.bom.gov.au/fwo/IDN60903/IDN60903.94915.axf

JavaScript Object Notation format (JSON) in row-major order
http://www.bom.gov.au/fwo/IDN60903/IDN60903.94915.json